createdAt,value
2023-04-10T00:01:11.010Z,98219.03
2023-04-10T00:03:38.339Z,98219.50
2023-04-10T00:06:06.174Z,98221.69
2023-04-10T00:08:33.520Z,98219.69
2023-04-10T00:11:00.657Z,98220.13
2023-04-10T00:13:27.812Z,98203.72
2023-04-10T00:15:54.877Z,98202.25
2023-04-10T00:18:22.090Z,98208.28
2023-04-10T00:20:49.228Z,98201.66
2023-04-10T00:23:16.371Z,98190.94
2023-04-10T00:25:49.038Z,98191.69
2023-04-10T00:28:21.033Z,98174.59
2023-04-10T00:30:48.236Z,98180.22
2023-04-10T00:33:15.337Z,98183.63
2023-04-10T00:35:46.021Z,98173.22
2023-04-10T00:38:14.163Z,98175.03
2023-04-10T00:40:42.107Z,98168.94
2023-04-10T00:46:08.090Z,98178.13
2023-04-10T00:48:35.782Z,98189.59
2023-04-10T00:51:03.350Z,98189.09
2023-04-10T00:53:30.820Z,98177.56
2023-04-10T00:55:58.591Z,98179.47
2023-04-10T00:58:27.145Z,98181.66
2023-04-10T01:00:54.486Z,98179.00
2023-04-10T01:03:22.249Z,98180.28
2023-04-10T01:06:16.644Z,98172.91
2023-04-10T01:09:04.581Z,98171.13
2023-04-10T01:11:43.069Z,98169.44
2023-04-10T01:14:28.238Z,98173.84
2023-04-10T01:17:04.745Z,98173.44
2023-04-10T01:20:23.976Z,98173.59
2023-04-10T01:23:21.652Z,98179.81
2023-04-10T01:25:54.496Z,98178.44
2023-04-10T01:28:52.644Z,98167.28
2023-04-10T01:31:50.792Z,98179.91
2023-04-10T01:34:23.296Z,98182.66
2023-04-10T01:36:55.710Z,98178.31
2023-04-10T01:39:26.415Z,98179.50
2023-04-10T01:41:57.081Z,98179.38
2023-04-10T01:44:38.448Z,98181.03
2023-04-10T01:47:08.044Z,98180.91
2023-04-10T01:49:37.712Z,98178.00
2023-04-10T01:52:07.476Z,98181.53
2023-04-10T01:54:35.967Z,98182.50
2023-04-10T01:57:04.919Z,98189.56
2023-04-10T01:59:40.116Z,98183.06
2023-04-10T02:02:08.090Z,98176.25
2023-04-10T02:04:35.441Z,98185.78
2023-04-10T02:07:48.590Z,98185.19
2023-04-10T02:10:22.894Z,98177.94
2023-04-10T02:13:02.425Z,98185.06
2023-04-10T02:15:32.799Z,98168.59
2023-04-10T02:18:01.926Z,98171.63
2023-04-10T02:20:29.406Z,98175.84
2023-04-10T02:22:59.812Z,98178.09
2023-04-10T02:25:27.359Z,98172.38
2023-04-10T02:27:54.433Z,98171.13
2023-04-10T02:30:22.426Z,98158.97
2023-04-10T02:32:50.019Z,98159.47
2023-04-10T02:35:18.657Z,98164.19
2023-04-10T02:37:47.673Z,98148.50
2023-04-10T02:40:16.490Z,98156.91
2023-04-10T02:42:54.356Z,98162.03
2023-04-10T02:45:21.880Z,98163.94
2023-04-10T02:47:49.343Z,98168.34
2023-04-10T02:50:18.416Z,98165.31
2023-04-10T02:52:46.849Z,98170.91
2023-04-10T02:55:14.033Z,98171.16
2023-04-10T02:57:43.003Z,98164.91
2023-04-10T03:00:11.350Z,98161.50
2023-04-10T03:03:07.638Z,98161.16
2023-04-10T03:05:43.431Z,98151.94
2023-04-10T03:08:10.687Z,98164.75
2023-04-10T03:10:37.811Z,98155.63
2023-04-10T03:13:05.093Z,98167.72
2023-04-10T03:15:34.255Z,98158.44
2023-04-10T03:18:01.475Z,98157.00
2023-04-10T03:20:28.761Z,98160.56
2023-04-10T03:22:56.015Z,98164.59
2023-04-10T03:25:27.556Z,98166.50
2023-04-10T03:27:55.280Z,98165.16
2023-04-10T03:30:22.893Z,98171.38
2023-04-10T03:32:50.074Z,98166.34
2023-04-10T03:35:17.418Z,98171.25
2023-04-10T03:37:44.584Z,98175.19
2023-04-10T03:40:12.884Z,98183.16
2023-04-10T03:42:40.330Z,98176.03
2023-04-10T03:45:08.375Z,98173.78
2023-04-10T03:47:35.728Z,98176.81
2023-04-10T03:50:05.908Z,98165.81
2023-04-10T03:52:40.631Z,98181.44
2023-04-10T03:55:12.762Z,98177.97
2023-04-10T03:57:39.918Z,98181.06
2023-04-10T04:00:09.156Z,98176.88
2023-04-10T04:02:51.300Z,98190.09
2023-04-10T04:05:34.038Z,98188.72
2023-04-10T04:08:21.416Z,98196.59
2023-04-10T04:11:10.509Z,98201.44
2023-04-10T04:13:55.053Z,98197.28
2023-04-10T04:16:51.433Z,98189.19
2023-04-10T04:19:47.899Z,98202.94
2023-04-10T04:22:23.877Z,98197.53
2023-04-10T04:25:13.357Z,98198.72
2023-04-10T04:28:01.983Z,98197.00
2023-04-10T04:30:31.996Z,98194.47
2023-04-10T04:33:18.044Z,98200.00
2023-04-10T04:35:57.588Z,98202.44
2023-04-10T04:38:57.587Z,98197.00
2023-04-10T04:41:49.283Z,98189.78
2023-04-10T04:44:36.952Z,98191.44
2023-04-10T04:47:21.909Z,98199.31
2023-04-10T04:50:06.758Z,98198.53
2023-04-10T04:52:49.483Z,98189.13
2023-04-10T04:55:39.605Z,98204.88
2023-04-10T04:58:18.930Z,98205.78
2023-04-10T05:01:21.179Z,98202.22
2023-04-10T05:04:14.467Z,98208.88
2023-04-10T05:06:56.636Z,98210.34
2023-04-10T05:09:42.459Z,98211.34
2023-04-10T05:12:28.221Z,98219.72
2023-04-10T05:15:04.463Z,98216.91
2023-04-10T05:17:54.950Z,98207.56
2023-04-10T05:20:55.018Z,98217.97
2023-04-10T05:23:37.209Z,98213.25
2023-04-10T05:26:27.047Z,98213.91
2023-04-10T05:29:16.914Z,98226.44
2023-04-10T05:31:55.993Z,98214.06
2023-04-10T05:34:40.165Z,98211.97
2023-04-10T05:37:13.265Z,98216.13
2023-04-10T05:40:10.017Z,98218.41
2023-04-10T05:43:03.584Z,98218.53
2023-04-10T05:45:50.588Z,98221.16
2023-04-10T05:48:40.752Z,98219.31
2023-04-10T05:51:22.521Z,98209.72
2023-04-10T05:56:58.257Z,98236.88
2023-04-10T05:59:57.754Z,98232.38
2023-04-10T06:02:42.824Z,98222.41
2023-04-10T06:05:18.473Z,98217.59
2023-04-10T06:07:46.129Z,98231.78
2023-04-10T06:10:15.013Z,98239.38
2023-04-10T06:12:42.314Z,98244.13
2023-04-10T06:15:11.766Z,98232.34
2023-04-10T06:17:43.989Z,98236.38
2023-04-10T06:20:11.525Z,98231.19
2023-04-10T06:22:38.744Z,98230.88
2023-04-10T06:25:06.794Z,98228.34
2023-04-10T06:27:35.971Z,98218.81
2023-04-10T06:30:04.822Z,98223.47
2023-04-10T06:32:32.101Z,98218.84
2023-04-10T06:34:59.269Z,98219.16
2023-04-10T06:37:33.137Z,98230.09
2023-04-10T06:40:08.111Z,98230.28
2023-04-10T06:42:36.078Z,98228.38
2023-04-10T06:45:10.192Z,98235.47
2023-04-10T06:47:37.518Z,98231.69
2023-04-10T06:50:04.902Z,98233.72
2023-04-10T06:52:32.724Z,98230.41
2023-04-10T06:54:59.872Z,98235.25
2023-04-10T06:57:27.054Z,98229.38
2023-04-10T06:59:54.253Z,98230.38
2023-04-10T07:02:21.645Z,98231.88
2023-04-10T07:04:49.050Z,98220.00
2023-04-10T07:07:16.331Z,98221.53
2023-04-10T07:09:44.072Z,98207.28
2023-04-10T07:12:11.307Z,98221.00
2023-04-10T07:14:38.494Z,98221.19
2023-04-10T07:17:05.900Z,98215.94
2023-04-10T07:19:33.108Z,98213.50
2023-04-10T07:22:00.939Z,98219.25
2023-04-10T07:24:28.404Z,98208.41
2023-04-10T07:26:57.495Z,98211.50
2023-04-10T07:29:24.719Z,98204.72
2023-04-10T07:31:51.902Z,98214.03
2023-04-10T07:34:19.241Z,98212.19
2023-04-10T07:36:47.556Z,98216.63
2023-04-10T07:39:14.733Z,98215.09
2023-04-10T07:41:42.090Z,98215.84
2023-04-10T07:44:09.522Z,98204.53
2023-04-10T07:46:36.912Z,98208.88
2023-04-10T07:49:04.880Z,98206.53
2023-04-10T07:51:32.759Z,98208.81
2023-04-10T07:54:00.016Z,98213.78
2023-04-10T07:56:27.154Z,98211.78
2023-04-10T07:58:54.498Z,98212.38
2023-04-10T08:01:21.842Z,98209.44
2023-04-10T08:03:49.099Z,98204.28
2023-04-10T08:06:16.334Z,98219.75
2023-04-10T08:08:43.532Z,98202.78
2023-04-10T08:11:23.871Z,98208.31
2023-04-10T08:13:55.242Z,98209.88
2023-04-10T08:16:26.632Z,98203.38
2023-04-10T08:18:55.339Z,98205.66
2023-04-10T08:21:23.536Z,98189.03
2023-04-10T08:23:51.958Z,98198.38
2023-04-10T08:26:20.014Z,98192.31
2023-04-10T08:28:51.309Z,98193.78
2023-04-10T08:31:19.406Z,98192.97
2023-04-10T08:33:46.727Z,98187.75
2023-04-10T08:36:19.789Z,98204.97
2023-04-10T08:38:48.398Z,98188.19
2023-04-10T08:41:17.327Z,98181.22
2023-04-10T08:43:45.919Z,98202.09
2023-04-10T08:46:16.339Z,98185.41
2023-04-10T08:48:52.377Z,98186.34
2023-04-10T08:51:26.246Z,98192.06
2023-04-10T08:54:02.642Z,98193.81
2023-04-10T08:56:32.926Z,98180.44
2023-04-10T08:59:03.077Z,98189.41
2023-04-10T09:01:30.376Z,98185.81
2023-04-10T09:03:59.478Z,98167.25
2023-04-10T09:06:27.554Z,98183.53
2023-04-10T09:08:54.729Z,98182.69
2023-04-10T09:11:21.820Z,98178.47
2023-04-10T09:13:48.919Z,98180.50
2023-04-10T09:16:16.180Z,98159.88
2023-04-10T09:18:49.116Z,98161.97
2023-04-10T09:21:20.932Z,98157.75
2023-04-10T09:23:49.712Z,98154.53
2023-04-10T09:26:28.599Z,98149.63
2023-04-10T09:29:06.676Z,98151.53
2023-04-10T09:31:38.925Z,98146.09
2023-04-10T09:34:11.191Z,98144.84
2023-04-10T09:36:41.772Z,98141.38
2023-04-10T09:39:12.941Z,98140.25
2023-04-10T09:41:55.955Z,98134.59
2023-04-10T09:44:37.776Z,98131.13
2023-04-10T09:47:14.196Z,98128.03
2023-04-10T09:49:55.076Z,98124.63
2023-04-10T09:52:25.372Z,98124.59
2023-04-10T09:54:58.326Z,98125.63
2023-04-10T09:57:29.510Z,98122.63
2023-04-10T09:59:59.192Z,98118.06
2023-04-10T10:02:29.913Z,98117.72
2023-04-10T10:05:02.349Z,98104.66
2023-04-10T10:07:30.679Z,98099.41
2023-04-10T10:09:58.983Z,98106.44
2023-04-10T10:12:51.170Z,98109.03
2023-04-10T10:16:13.397Z,98092.75
2023-04-10T10:19:09.030Z,98103.66
2023-04-10T10:21:37.264Z,98086.19
2023-04-10T10:24:09.695Z,98089.03
2023-04-10T10:26:39.744Z,98092.22
2023-04-10T10:29:11.838Z,98079.31
2023-04-10T10:31:39.440Z,98087.94
2023-04-10T10:34:09.476Z,98079.72
2023-04-10T10:36:38.883Z,98076.38
2023-04-10T10:39:24.454Z,98079.31
2023-04-10T10:42:07.576Z,98069.34
2023-04-10T10:44:52.638Z,98072.97
2023-04-10T10:47:27.811Z,98065.13
2023-04-10T10:50:00.556Z,98071.16
2023-04-10T10:52:42.161Z,98058.25
2023-04-10T10:55:37.293Z,98047.16
2023-04-10T10:58:09.570Z,98046.88
2023-04-10T11:00:52.633Z,98050.38
2023-04-10T11:03:20.411Z,98043.31
2023-04-10T11:05:56.303Z,98054.25
2023-04-10T11:08:33.485Z,98044.31
2023-04-10T11:11:08.558Z,98037.38
2023-04-10T11:14:00.204Z,98032.81
2023-04-10T11:16:34.444Z,98025.06
2023-04-10T11:19:13.880Z,98017.78
2023-04-10T11:22:05.113Z,98026.25
2023-04-10T11:25:02.445Z,98007.75
2023-04-10T11:27:45.342Z,98023.03
2023-04-10T11:30:33.203Z,98018.44
2023-04-10T11:33:01.104Z,98013.19
2023-04-10T11:35:29.180Z,98006.06
2023-04-10T11:38:14.869Z,97995.28
2023-04-10T11:40:55.818Z,98000.19
2023-04-10T11:43:23.622Z,97999.53
2023-04-10T11:45:50.810Z,98003.44
2023-04-10T11:48:18.698Z,98005.34
2023-04-10T11:50:46.302Z,97980.41
2023-04-10T11:53:21.923Z,97992.91
2023-04-10T11:55:50.047Z,97984.28
2023-04-10T11:58:24.348Z,97968.13
2023-04-10T12:01:05.289Z,97969.63
2023-04-10T12:03:38.568Z,97961.50
2023-04-10T12:06:14.508Z,97961.81
2023-04-10T12:08:45.602Z,97964.00
2023-04-10T12:11:13.468Z,97955.28
2023-04-10T12:13:41.198Z,97955.19
2023-04-10T12:16:10.034Z,97957.19
2023-04-10T12:18:37.683Z,97960.88
2023-04-10T12:21:08.126Z,97942.91
2023-04-10T12:23:38.903Z,97932.38
2023-04-10T12:26:11.702Z,97954.91
2023-04-10T12:28:40.523Z,97934.25
2023-04-10T12:31:09.070Z,97945.84
2023-04-10T12:33:37.191Z,97940.72
2023-04-10T12:36:04.557Z,97938.91
2023-04-10T12:38:43.870Z,97934.91
2023-04-10T12:41:12.616Z,97930.72
2023-04-10T12:43:42.252Z,97925.06
2023-04-10T12:46:27.339Z,97928.09
2023-04-10T12:48:56.696Z,97918.34
2023-04-10T12:51:47.479Z,97927.72
2023-04-10T12:54:29.618Z,97917.63
2023-04-10T12:56:58.570Z,97907.47
2023-04-10T12:59:26.953Z,97910.59
2023-04-10T13:01:55.198Z,97897.78
2023-04-10T13:04:24.231Z,97901.72
2023-04-10T13:06:54.758Z,97898.53
2023-04-10T13:09:22.641Z,97899.69
2023-04-10T13:11:52.703Z,97903.16
2023-04-10T13:14:20.046Z,97899.41
2023-04-10T13:16:47.782Z,97896.50
2023-04-10T13:19:14.911Z,97895.53
2023-04-10T13:21:43.150Z,97892.31
2023-04-10T13:24:10.220Z,97884.41
2023-04-10T13:26:37.623Z,97882.00
2023-04-10T13:29:04.965Z,97889.66
2023-04-10T13:31:32.394Z,97884.47
2023-04-10T13:33:59.928Z,97879.91
2023-04-10T13:36:27.526Z,97876.25
2023-04-10T13:38:54.823Z,97876.22
2023-04-10T13:41:24.216Z,97875.72
2023-04-10T13:43:51.326Z,97871.84
2023-04-10T13:46:19.425Z,97872.88
2023-04-10T13:48:46.564Z,97871.69
2023-04-10T13:51:14.229Z,97870.34
2023-04-10T13:53:41.539Z,97868.31
2023-04-10T13:56:09.592Z,97866.72
2023-04-10T13:58:36.843Z,97861.22
2023-04-10T14:01:04.592Z,97857.44
2023-04-10T14:03:31.830Z,97852.63
2023-04-10T14:05:59.223Z,97862.91
2023-04-10T14:08:26.502Z,97843.25
2023-04-10T14:10:54.528Z,97860.13
2023-04-10T14:13:21.624Z,97862.63
2023-04-10T14:15:52.473Z,97856.91
2023-04-10T14:18:20.168Z,97859.22
2023-04-10T14:20:48.403Z,97859.41
2023-04-10T14:23:18.855Z,97855.94
2023-04-10T14:25:46.730Z,97861.50
2023-04-10T14:28:18.400Z,97857.91
2023-04-10T14:30:48.811Z,97850.41
2023-04-10T14:33:18.704Z,97850.97
2023-04-10T14:35:48.249Z,97848.75
2023-04-10T14:38:18.719Z,97837.69
2023-04-10T14:40:49.204Z,97838.31
2023-04-10T14:43:16.661Z,97840.00
2023-04-10T14:45:43.911Z,97851.16
2023-04-10T14:48:14.396Z,97850.53
2023-04-10T14:50:41.613Z,97854.53
2023-04-10T14:53:10.147Z,97853.47
2023-04-10T14:55:37.596Z,97853.09
2023-04-10T14:58:07.013Z,97865.69
2023-04-10T15:00:34.354Z,97845.28
2023-04-10T15:03:01.797Z,97849.66
2023-04-10T15:05:29.145Z,97846.00
2023-04-10T15:07:56.223Z,97851.84
2023-04-10T15:10:23.825Z,97853.25
2023-04-10T15:12:51.048Z,97851.31
2023-04-10T15:15:18.889Z,97850.94
2023-04-10T15:17:46.113Z,97864.63
2023-04-10T15:20:13.479Z,97868.22
2023-04-10T15:22:42.983Z,97871.06
2023-04-10T15:25:12.402Z,97871.31
2023-04-10T15:27:39.755Z,97867.16
2023-04-10T15:30:07.444Z,97867.56
2023-04-10T15:32:37.668Z,97871.59
2023-04-10T15:35:05.204Z,97847.41
2023-04-10T15:37:34.583Z,97871.31
2023-04-10T15:40:01.952Z,97878.97
2023-04-10T15:42:29.157Z,97877.75
2023-04-10T15:44:56.297Z,97886.56
2023-04-10T15:47:23.428Z,97885.06
2023-04-10T15:49:50.878Z,97891.50
2023-04-10T15:52:17.966Z,97890.59
2023-04-10T15:54:45.291Z,97888.88
2023-04-10T15:57:12.503Z,97892.66
2023-04-10T15:59:39.739Z,97887.88
2023-04-10T16:02:06.922Z,97900.81
2023-04-10T16:04:35.393Z,97898.84
2023-04-10T16:07:02.862Z,97900.91
2023-04-10T16:09:30.713Z,97894.91
2023-04-10T16:11:58.167Z,97897.47
2023-04-10T16:14:25.278Z,97904.00
2023-04-10T16:16:52.477Z,97893.44
2023-04-10T16:19:19.787Z,97893.56
2023-04-10T16:21:46.946Z,97910.25
2023-04-10T16:24:14.404Z,97907.94
2023-04-10T16:26:41.634Z,97906.97
2023-04-10T16:29:08.694Z,97900.16
2023-04-10T16:31:35.892Z,97914.28
2023-04-10T16:34:02.974Z,97921.84
2023-04-10T16:36:30.177Z,97908.84
2023-04-10T16:38:57.506Z,97929.09
2023-04-10T16:41:25.135Z,97923.75
2023-04-10T16:43:52.371Z,97931.09
2023-04-10T16:46:19.525Z,97911.97
2023-04-10T16:48:46.661Z,97928.28
2023-04-10T16:51:17.872Z,97931.19
2023-04-10T16:53:45.290Z,97933.88
2023-04-10T16:56:12.549Z,97933.56
2023-04-10T16:58:42.252Z,97932.91
2023-04-10T17:01:20.623Z,97935.38
2023-04-10T17:03:49.153Z,97939.09
2023-04-10T17:06:16.639Z,97948.38
2023-04-10T17:08:44.390Z,97948.69
2023-04-10T17:11:12.929Z,97950.00
2023-04-10T17:13:41.043Z,97950.78
2023-04-10T17:16:09.586Z,97956.81
2023-04-10T17:18:36.789Z,97942.06
2023-04-10T17:21:04.256Z,97953.59
2023-04-10T17:23:31.713Z,97951.28
2023-04-10T17:25:58.855Z,97962.28
2023-04-10T17:28:26.372Z,97967.47
2023-04-10T17:30:53.491Z,97969.50
2023-04-10T17:33:22.065Z,97957.16
2023-04-10T17:35:50.957Z,97969.78
2023-04-10T17:38:18.421Z,97979.81
2023-04-10T17:40:45.539Z,97985.13
2023-04-10T17:43:12.677Z,97996.50
2023-04-10T17:45:43.154Z,97998.75
2023-04-10T17:48:10.720Z,98000.03
2023-04-10T17:50:38.111Z,98013.31
2023-04-10T17:53:05.152Z,98012.00
2023-04-10T17:55:37.922Z,98010.97
2023-04-10T17:58:05.915Z,98005.91
2023-04-10T18:00:34.491Z,98028.44
2023-04-10T18:03:02.595Z,98030.63
2023-04-10T18:05:30.982Z,98038.16
2023-04-10T18:07:58.518Z,98039.44
2023-04-10T18:10:25.762Z,98044.63
2023-04-10T18:12:53.716Z,98043.25
2023-04-10T18:15:20.916Z,98046.91
2023-04-10T18:17:48.826Z,98048.50
2023-04-10T18:20:16.153Z,98049.34
2023-04-10T18:22:43.506Z,98049.34
2023-04-10T18:25:11.164Z,98070.09
2023-04-10T18:27:43.518Z,98060.03
2023-04-10T18:30:13.545Z,98071.34
2023-04-10T18:32:40.675Z,98069.59
2023-04-10T18:35:08.815Z,98073.16
2023-04-10T18:37:36.170Z,98050.72
2023-04-10T18:40:09.776Z,98059.91
2023-04-10T18:42:40.884Z,98063.16
2023-04-10T18:45:08.540Z,98058.16
2023-04-10T18:47:35.709Z,98067.53
2023-04-10T18:50:02.859Z,98058.66
2023-04-10T18:52:29.935Z,98077.81
2023-04-10T18:54:57.142Z,98064.44
2023-04-10T18:57:24.279Z,98078.06
2023-04-10T18:59:51.475Z,98091.25
2023-04-10T19:02:19.080Z,98082.84
2023-04-10T19:04:46.565Z,98083.00
2023-04-10T19:07:14.046Z,98077.06
2023-04-10T19:09:41.331Z,98073.13
2023-04-10T19:12:08.501Z,98095.72
2023-04-10T19:14:37.552Z,98097.94
2023-04-10T19:17:06.455Z,98093.19
2023-04-10T19:19:34.333Z,98087.81
2023-04-10T19:22:01.557Z,98079.44
2023-04-10T19:24:29.461Z,98079.78
2023-04-10T19:26:57.662Z,98091.38
2023-04-10T19:29:24.778Z,98086.63
2023-04-10T19:31:51.902Z,98096.41
2023-04-10T19:34:19.020Z,98100.75
2023-04-10T19:36:46.189Z,98085.88
2023-04-10T19:39:13.322Z,98083.38
2023-04-10T19:41:42.470Z,98095.06
2023-04-10T19:44:09.797Z,98094.16
2023-04-10T19:46:36.944Z,98109.78
2023-04-10T19:49:04.586Z,98091.91
2023-04-10T19:51:32.640Z,98090.81
2023-04-10T19:54:00.770Z,98103.41
2023-04-10T19:56:29.619Z,98094.56
2023-04-10T19:58:57.282Z,98100.47
2023-04-10T20:01:24.884Z,98090.63
2023-04-10T20:03:52.950Z,98085.97
2023-04-10T20:06:22.036Z,98076.69
2023-04-10T20:08:49.791Z,98096.38
2023-04-10T20:11:17.342Z,98099.72
2023-04-10T20:13:44.666Z,98106.25
2023-04-10T20:16:12.502Z,98094.91
2023-04-10T20:18:41.500Z,98109.97
2023-04-10T20:21:09.407Z,98101.25
2023-04-10T20:23:37.842Z,98107.84
2023-04-10T20:26:05.288Z,98123.72
2023-04-10T20:28:32.920Z,98107.06
2023-04-10T20:31:00.101Z,98103.91
2023-04-10T20:33:28.002Z,98106.59
2023-04-10T20:35:55.141Z,98099.00
2023-04-10T20:38:22.504Z,98092.84
2023-04-10T20:40:49.963Z,98102.19
2023-04-10T20:43:18.972Z,98114.72
2023-04-10T20:45:46.299Z,98111.38
2023-04-10T20:48:14.498Z,98117.38
2023-04-10T20:50:47.031Z,98114.31
2023-04-10T20:53:14.375Z,98094.75
2023-04-10T20:55:41.748Z,98108.00
2023-04-10T20:58:09.168Z,98103.78
2023-04-10T21:00:36.518Z,98107.28
2023-04-10T21:03:05.158Z,98109.75
2023-04-10T21:05:32.350Z,98102.59
2023-04-10T21:08:00.171Z,98111.19
2023-04-10T21:10:27.896Z,98107.72
2023-04-10T21:12:57.306Z,98099.00
2023-04-10T21:15:24.484Z,98113.88
2023-04-10T21:17:52.227Z,98118.94
2023-04-10T21:20:19.525Z,98129.44
2023-04-10T21:22:46.905Z,98119.81
2023-04-10T21:25:14.184Z,98108.78
2023-04-10T21:27:41.496Z,98109.00
2023-04-10T21:30:09.155Z,98098.28
2023-04-10T21:32:37.142Z,98099.47
2023-04-10T21:35:04.395Z,98111.25
2023-04-10T21:37:31.799Z,98115.56
2023-04-10T21:39:59.501Z,98107.53
2023-04-10T21:42:27.024Z,98117.22
2023-04-10T21:44:54.983Z,98121.28
2023-04-10T21:47:23.717Z,98110.84
2023-04-10T21:49:51.362Z,98110.72
2023-04-10T21:52:19.012Z,98097.75
2023-04-10T21:54:46.439Z,98116.72
2023-04-10T21:57:13.801Z,98111.50
2023-04-10T21:59:41.013Z,98113.81
2023-04-10T22:02:08.659Z,98124.00
2023-04-10T22:04:41.397Z,98127.22
2023-04-10T22:07:13.287Z,98120.06
2023-04-10T22:09:40.338Z,98121.44
2023-04-10T22:12:07.835Z,98125.53
2023-04-10T22:14:35.252Z,98124.16
2023-04-10T22:17:02.670Z,98110.00
2023-04-10T22:19:29.786Z,98115.63
2023-04-10T22:21:57.465Z,98113.94
2023-04-10T22:24:24.570Z,98112.91
2023-04-10T22:26:52.030Z,98115.63
2023-04-10T22:29:19.571Z,98117.97
2023-04-10T22:31:47.017Z,98107.78
2023-04-10T22:34:14.059Z,98121.28
2023-04-10T22:36:41.599Z,98124.66
2023-04-10T22:39:08.790Z,98119.75
2023-04-10T22:41:36.183Z,98121.75
2023-04-10T22:44:03.424Z,98115.66
2023-04-10T22:46:31.180Z,98118.16
2023-04-10T22:48:58.403Z,98114.19
2023-04-10T22:51:27.068Z,98101.97
2023-04-10T22:53:54.513Z,98106.69
2023-04-10T22:56:26.395Z,98107.38
2023-04-10T22:58:53.943Z,98113.09
2023-04-10T23:01:21.655Z,98091.41
2023-04-10T23:03:53.001Z,98097.78
2023-04-10T23:06:21.102Z,98097.41
2023-04-10T23:08:48.206Z,98099.81
2023-04-10T23:11:15.909Z,98102.81
2023-04-10T23:13:44.000Z,98105.84
2023-04-10T23:16:11.739Z,98096.31
2023-04-10T23:18:39.441Z,98095.25
2023-04-10T23:21:08.140Z,98093.81
2023-04-10T23:23:35.278Z,98098.00
2023-04-10T23:26:02.912Z,98097.63
2023-04-10T23:28:30.231Z,98082.03
2023-04-10T23:30:57.659Z,98082.94
2023-04-10T23:33:24.749Z,98092.28
2023-04-10T23:35:53.099Z,98081.97
2023-04-10T23:38:21.438Z,98080.16
2023-04-10T23:40:49.787Z,98077.88
2023-04-10T23:43:16.897Z,98072.66
2023-04-10T23:45:44.232Z,98090.28
2023-04-10T23:48:12.582Z,98086.66
2023-04-10T23:50:40.110Z,98078.97
2023-04-10T23:53:09.722Z,98073.34
2023-04-10T23:55:40.350Z,98081.31
2023-04-10T23:58:07.540Z,98073.94
